createdAt,value
2017-05-18T00:00:21.668Z,0
2017-05-18T00:01:31.564Z,0
2017-05-18T00:02:41.172Z,0
2017-05-18T00:03:50.798Z,0
2017-05-18T00:05:00.405Z,0
2017-05-18T00:06:10.008Z,0
2017-05-18T00:07:19.611Z,0
2017-05-18T00:08:29.831Z,0
2017-05-18T00:09:39.751Z,0
2017-05-18T00:10:49.663Z,0
2017-05-18T00:11:59.892Z,0
2017-05-18T00:13:10.122Z,0
2017-05-18T00:14:20.060Z,0
2017-05-18T00:15:29.969Z,0
2017-05-18T00:16:40.187Z,0
2017-05-18T00:17:50.416Z,0
2017-05-18T00:19:00.330Z,0
2017-05-18T00:20:10.251Z,0
2017-05-18T00:21:20.479Z,0
2017-05-18T00:22:30.404Z,0
2017-05-18T00:23:40.332Z,0
2017-05-18T00:24:50.545Z,0
2017-05-18T00:26:00.778Z,0
2017-05-18T00:27:10.704Z,0
2017-05-18T00:28:20.629Z,0
2017-05-18T00:29:30.544Z,0
2017-05-18T00:30:40.764Z,0
2017-05-18T00:31:50.691Z,0
2017-05-18T00:33:00.373Z,0
2017-05-18T00:34:10.590Z,0
2017-05-18T00:35:20.499Z,0
2017-05-18T00:36:30.720Z,0
2017-05-18T00:37:40.636Z,0
2017-05-18T00:38:50.550Z,0
2017-05-18T00:40:00.763Z,0
2017-05-18T00:41:10.372Z,0
2017-05-18T00:42:19.976Z,0
2017-05-18T00:43:30.189Z,0
2017-05-18T00:44:40.111Z,0
2017-05-18T00:45:50.338Z,0
2017-05-18T00:47:00.550Z,0
2017-05-18T00:48:10.811Z,0
2017-05-18T00:49:20.418Z,0
2017-05-18T00:50:30.642Z,0
2017-05-18T00:51:40.244Z,0
2017-05-18T00:52:50.469Z,0
2017-05-18T00:54:00.389Z,0
2017-05-18T00:55:10.307Z,0
2017-05-18T00:56:20.588Z,0
2017-05-18T00:57:29.749Z,0
2017-05-18T00:58:39.355Z,0
2017-05-18T00:59:49.570Z,0
2017-05-18T01:00:59.503Z,0
2017-05-18T01:02:09.768Z,0
2017-05-18T01:03:19.434Z,0
2017-05-18T01:04:28.735Z,0
2017-05-18T01:05:38.343Z,0
2017-05-18T01:06:47.947Z,0
2017-05-18T01:07:58.168Z,0
2017-05-18T01:09:07.786Z,0
2017-05-18T01:10:17.079Z,0
2017-05-18T01:11:27.302Z,0
2017-05-18T01:12:37.211Z,0
2017-05-18T01:13:47.120Z,0
2017-05-18T01:14:57.364Z,0
2017-05-18T01:16:06.670Z,0
2017-05-18T01:17:16.271Z,0
2017-05-18T01:18:26.185Z,0
2017-05-18T01:19:36.096Z,0
2017-05-18T01:20:46.304Z,0
2017-05-18T01:21:56.213Z,0
2017-05-18T01:23:06.115Z,0
2017-05-18T01:24:16.390Z,0
2017-05-18T01:25:26.008Z,0
2017-05-18T01:26:36.300Z,0
2017-05-18T01:27:46.528Z,0
2017-05-18T01:28:56.748Z,0
2017-05-18T01:30:06.979Z,0
2017-05-18T01:31:16.595Z,0
2017-05-18T01:32:26.501Z,0
2017-05-18T01:33:36.721Z,0
2017-05-18T01:34:46.633Z,0
2017-05-18T01:35:57.067Z,0
2017-05-18T01:37:06.984Z,0
2017-05-18T01:38:16.591Z,0
2017-05-18T01:39:26.518Z,0
2017-05-18T01:40:36.125Z,0
2017-05-18T01:41:46.052Z,0
2017-05-18T01:42:56.267Z,0
2017-05-18T01:44:06.489Z,0
2017-05-18T01:45:16.750Z,0
2017-05-18T01:46:26.975Z,0
2017-05-18T01:47:36.889Z,0
2017-05-18T01:48:46.815Z,0
2017-05-18T01:49:56.757Z,0
2017-05-18T01:51:06.388Z,0
2017-05-18T01:52:16.610Z,0
2017-05-18T01:53:26.222Z,0
2017-05-18T01:54:36.133Z,0
2017-05-18T01:55:46.057Z,0
2017-05-18T01:56:56.279Z,0
2017-05-18T01:58:06.547Z,0
2017-05-18T01:59:16.768Z,0
2017-05-18T02:00:26.988Z,0
2017-05-18T02:01:37.293Z,0
2017-05-18T02:02:47.201Z,0
2017-05-18T02:03:57.422Z,0
2017-05-18T02:05:07.648Z,0
2017-05-18T02:06:17.572Z,0
2017-05-18T02:07:27.802Z,0
2017-05-18T02:08:37.396Z,0
2017-05-18T02:09:46.997Z,0
2017-05-18T02:10:57.273Z,0
2017-05-18T02:12:07.496Z,0
2017-05-18T02:13:17.721Z,0
2017-05-18T02:14:27.687Z,0
2017-05-18T02:15:37.632Z,0
2017-05-18T02:16:47.857Z,0
2017-05-18T02:17:57.768Z,0
2017-05-18T02:19:07.750Z,0
2017-05-18T02:20:17.991Z,0
2017-05-18T02:21:27.914Z,0
2017-05-18T02:22:38.171Z,0
2017-05-18T02:23:48.077Z,0
2017-05-18T02:24:57.688Z,0
2017-05-18T02:26:07.633Z,0
2017-05-18T02:27:17.246Z,0
2017-05-18T02:28:27.156Z,0
2017-05-18T02:29:37.069Z,0
2017-05-18T02:30:47.278Z,0
2017-05-18T02:31:57.496Z,0
2017-05-18T02:33:07.406Z,0
2017-05-18T02:34:17.316Z,0
2017-05-18T02:35:27.216Z,0
2017-05-18T02:36:37.437Z,0
2017-05-18T02:37:47.649Z,0
2017-05-18T02:38:57.558Z,0
2017-05-18T02:40:07.464Z,0
2017-05-18T02:41:17.057Z,0
2017-05-18T02:42:26.992Z,0
2017-05-18T02:43:36.588Z,0
2017-05-18T02:44:46.494Z,0
2017-05-18T02:45:56.403Z,0
2017-05-18T02:47:06.305Z,0
2017-05-18T02:48:16.529Z,0
2017-05-18T02:49:26.450Z,0
2017-05-18T02:50:36.074Z,0
2017-05-18T02:51:45.683Z,0
2017-05-18T02:52:55.594Z,0
2017-05-18T02:54:05.516Z,0
2017-05-18T02:55:15.436Z,0
2017-05-18T02:56:25.336Z,0
2017-05-18T02:57:35.254Z,0
2017-05-18T02:58:44.859Z,0
2017-05-18T02:59:54.769Z,0
2017-05-18T03:01:04.380Z,0
2017-05-18T03:02:13.980Z,0
2017-05-18T03:03:23.581Z,0
2017-05-18T03:04:33.490Z,0
2017-05-18T03:05:43.109Z,0
2017-05-18T03:06:53.028Z,4
2017-05-18T03:08:02.970Z,4
2017-05-18T03:09:12.593Z,0
2017-05-18T03:10:22.230Z,4
2017-05-18T03:11:32.451Z,4
2017-05-18T03:12:42.675Z,4
2017-05-18T03:13:52.578Z,4
2017-05-18T03:15:02.496Z,4
2017-05-18T03:16:12.706Z,4
2017-05-18T03:17:22.617Z,4
2017-05-18T03:18:32.541Z,8
2017-05-18T03:19:42.158Z,8
2017-05-18T03:20:52.375Z,12
2017-05-18T03:22:02.630Z,12
2017-05-18T03:23:12.555Z,12
2017-05-18T03:24:22.771Z,16
2017-05-18T03:25:32.384Z,12
2017-05-18T03:26:42.284Z,20
2017-05-18T03:27:52.207Z,20
2017-05-18T03:29:02.286Z,24
2017-05-18T03:30:12.505Z,24
2017-05-18T03:31:22.407Z,28
2017-05-18T03:32:32.311Z,28
2017-05-18T03:33:42.230Z,28
2017-05-18T03:34:52.145Z,36
2017-05-18T03:36:02.368Z,40
2017-05-18T03:37:11.967Z,44
2017-05-18T03:38:21.880Z,48
2017-05-18T03:39:31.809Z,52
2017-05-18T03:40:41.778Z,56
2017-05-18T03:41:51.065Z,64
2017-05-18T03:43:00.064Z,80
2017-05-18T03:44:09.969Z,92
2017-05-18T03:45:20.180Z,108
2017-05-18T03:46:30.393Z,120
2017-05-18T03:47:39.994Z,136
2017-05-18T03:48:49.903Z,152
2017-05-18T03:49:59.809Z,168
2017-05-18T03:51:09.711Z,184
2017-05-18T03:52:19.929Z,200
2017-05-18T03:53:29.842Z,216
2017-05-18T03:54:39.439Z,232
2017-05-18T03:55:49.664Z,252
2017-05-18T03:56:59.571Z,276
2017-05-18T03:58:09.156Z,284
2017-05-18T03:59:19.074Z,280
2017-05-18T04:00:29.301Z,268
2017-05-18T04:01:39.213Z,264
2017-05-18T04:02:49.130Z,296
2017-05-18T04:03:59.038Z,364
2017-05-18T04:05:08.647Z,428
2017-05-18T04:06:18.863Z,480
2017-05-18T04:07:28.776Z,512
2017-05-18T04:08:38.680Z,516
2017-05-18T04:09:48.912Z,488
2017-05-18T04:10:58.524Z,456
2017-05-18T04:12:08.123Z,436
2017-05-18T04:13:18.022Z,444
2017-05-18T04:14:27.621Z,504
2017-05-18T04:15:37.601Z,536
2017-05-18T04:16:47.507Z,540
2017-05-18T04:17:57.750Z,464
2017-05-18T04:19:08.002Z,392
2017-05-18T04:20:17.298Z,360
2017-05-18T04:21:26.902Z,344
2017-05-18T04:22:36.498Z,360
2017-05-18T04:23:46.733Z,380
2017-05-18T04:24:56.643Z,404
2017-05-18T04:26:06.258Z,448
2017-05-18T04:27:16.467Z,404
2017-05-18T04:28:26.075Z,380
2017-05-18T04:29:35.989Z,384
2017-05-18T04:30:46.217Z,388
2017-05-18T04:31:56.131Z,428
2017-05-18T04:33:05.738Z,508
2017-05-18T04:34:15.946Z,592
2017-05-18T04:35:26.164Z,644
2017-05-18T04:36:36.383Z,676
2017-05-18T04:37:46.611Z,684
2017-05-18T04:38:56.866Z,716
2017-05-18T04:40:07.071Z,776
2017-05-18T04:41:16.365Z,852
2017-05-18T04:42:26.638Z,864
2017-05-18T04:43:36.554Z,872
2017-05-18T04:44:46.775Z,872
2017-05-18T04:45:56.683Z,900
2017-05-18T04:47:06.598Z,948
2017-05-18T04:48:16.515Z,992
2017-05-18T04:49:26.805Z,1052
2017-05-18T04:50:37.037Z,1128
2017-05-18T04:51:47.004Z,1248
2017-05-18T04:52:56.916Z,1328
2017-05-18T04:54:07.137Z,1264
2017-05-18T04:55:17.342Z,1304
2017-05-18T04:56:27.263Z,1392
2017-05-18T04:57:36.912Z,1472
2017-05-18T04:58:46.853Z,1552
2017-05-18T04:59:57.062Z,1532
2017-05-18T05:01:07.287Z,1420
2017-05-18T05:02:16.896Z,1236
2017-05-18T05:03:27.115Z,1108
2017-05-18T05:04:37.023Z,936
2017-05-18T05:05:46.932Z,712
2017-05-18T05:06:56.841Z,612
2017-05-18T05:08:07.124Z,580
2017-05-18T05:09:17.038Z,584
2017-05-18T05:10:26.962Z,604
2017-05-18T05:11:36.876Z,588
2017-05-18T05:12:47.113Z,572
2017-05-18T05:13:57.343Z,576
2017-05-18T05:15:07.264Z,528
2017-05-18T05:16:16.879Z,496
2017-05-18T05:17:26.789Z,464
2017-05-18T05:18:36.085Z,400
2017-05-18T05:19:46.309Z,480
2017-05-18T05:20:55.910Z,684
2017-05-18T05:22:06.122Z,756
2017-05-18T05:23:16.033Z,696
2017-05-18T05:24:26.264Z,620
2017-05-18T05:25:36.177Z,576
2017-05-18T05:26:46.076Z,632
2017-05-18T05:27:56.312Z,528
2017-05-18T05:29:06.527Z,452
2017-05-18T05:30:16.433Z,400
2017-05-18T05:31:26.645Z,332
2017-05-18T05:32:36.867Z,420
2017-05-18T05:33:47.087Z,484
2017-05-18T05:34:56.994Z,448
2017-05-18T05:36:06.907Z,344
2017-05-18T05:37:17.625Z,304
2017-05-18T05:38:27.222Z,308
2017-05-18T05:39:36.826Z,304
2017-05-18T05:40:46.439Z,296
2017-05-18T05:41:56.351Z,288
2017-05-18T05:43:06.297Z,352
2017-05-18T05:44:16.203Z,400
2017-05-18T05:45:26.422Z,448
2017-05-18T05:46:36.638Z,500
2017-05-18T05:47:46.554Z,540
2017-05-18T05:48:56.236Z,452
2017-05-18T05:50:05.544Z,436
2017-05-18T05:51:15.145Z,548
2017-05-18T05:52:25.114Z,748
2017-05-18T05:53:35.025Z,728
2017-05-18T05:54:44.939Z,1040
2017-05-18T05:55:54.848Z,1468
2017-05-18T05:57:05.061Z,1772
2017-05-18T05:58:15.274Z,1440
2017-05-18T05:59:25.181Z,1456
2017-05-18T06:00:34.783Z,1632
2017-05-18T06:01:44.730Z,1924
2017-05-18T06:02:54.644Z,2100
2017-05-18T06:04:04.561Z,1996
2017-05-18T06:05:14.471Z,1040
2017-05-18T06:06:24.372Z,864
2017-05-18T06:07:34.583Z,996
2017-05-18T06:08:44.806Z,1172
2017-05-18T06:09:55.016Z,1276
2017-05-18T06:11:04.939Z,1472
2017-05-18T06:12:15.164Z,1784
2017-05-18T06:13:24.768Z,2272
2017-05-18T06:14:34.056Z,9296
2017-05-18T06:15:43.203Z,4072
2017-05-18T06:16:53.129Z,3528
2017-05-18T06:18:02.729Z,2664
2017-05-18T06:19:12.975Z,2516
2017-05-18T06:20:23.189Z,3720
2017-05-18T06:21:33.108Z,2788
2017-05-18T06:22:43.325Z,6028
2017-05-18T06:23:53.607Z,2164
2017-05-18T06:25:03.828Z,1340
2017-05-18T06:26:14.046Z,1228
2017-05-18T06:27:23.652Z,1300
2017-05-18T06:28:33.598Z,1124
2017-05-18T06:29:43.600Z,940
2017-05-18T06:30:53.213Z,824
2017-05-18T06:32:03.438Z,772
2017-05-18T06:33:13.048Z,668
2017-05-18T06:34:22.655Z,612
2017-05-18T06:35:33.678Z,624
2017-05-18T06:36:43.608Z,568
2017-05-18T06:37:53.218Z,504
2017-05-18T06:39:03.135Z,540
2017-05-18T06:40:12.747Z,580
2017-05-18T06:41:22.728Z,592
2017-05-18T06:42:32.960Z,600
2017-05-18T06:43:43.196Z,624
2017-05-18T06:44:53.420Z,684
2017-05-18T06:46:03.037Z,692
2017-05-18T06:47:12.963Z,512
2017-05-18T06:48:22.568Z,364
2017-05-18T06:49:32.487Z,344
2017-05-18T06:50:42.092Z,416
2017-05-18T06:51:51.387Z,396
2017-05-18T06:53:01.613Z,352
2017-05-18T06:54:11.842Z,360
2017-05-18T06:55:21.440Z,392
2017-05-18T06:56:31.361Z,432
2017-05-18T06:57:40.966Z,488
2017-05-18T06:58:50.883Z,548
2017-05-18T07:00:00.794Z,608
2017-05-18T07:01:11.029Z,612
2017-05-18T07:02:20.649Z,632
2017-05-18T07:03:30.257Z,636
2017-05-18T07:04:39.550Z,588
2017-05-18T07:05:49.166Z,640
2017-05-18T07:06:59.084Z,736
2017-05-18T07:08:09.318Z,748
2017-05-18T07:09:19.251Z,764
2017-05-18T07:10:28.860Z,768
2017-05-18T07:11:38.459Z,836
2017-05-18T07:12:48.115Z,1204
2017-05-18T07:13:58.029Z,1888
2017-05-18T07:15:08.247Z,2360
2017-05-18T07:16:18.181Z,3196
2017-05-18T07:17:28.403Z,9520
2017-05-18T07:18:38.629Z,9364
2017-05-18T07:19:48.560Z,5996
2017-05-18T07:20:57.886Z,5600
2017-05-18T07:22:07.814Z,29664
2017-05-18T07:23:17.435Z,8828
2017-05-18T07:24:27.038Z,8308
2017-05-18T07:25:36.641Z,6328
2017-05-18T07:26:45.947Z,5264
2017-05-18T07:27:56.167Z,3880
2017-05-18T07:29:06.448Z,3092
2017-05-18T07:30:16.393Z,2424
2017-05-18T07:31:26.011Z,2188
2017-05-18T07:32:35.322Z,2256
2017-05-18T07:33:45.247Z,3004
2017-05-18T07:34:55.164Z,3656
2017-05-18T07:36:05.085Z,4604
2017-05-18T07:37:14.684Z,3616
2017-05-18T07:38:24.620Z,9088
2017-05-18T07:39:34.849Z,30464
2017-05-18T07:40:44.769Z,37952
2017-05-18T07:41:54.383Z,20672
2017-05-18T07:43:04.631Z,18720
2017-05-18T07:44:14.252Z,40384
2017-05-18T07:45:23.567Z,35616
2017-05-18T07:46:33.192Z,7868
2017-05-18T07:47:43.114Z,19904
2017-05-18T07:48:53.332Z,20640
2017-05-18T07:50:03.243Z,30688
2017-05-18T07:51:12.882Z,26048
2017-05-18T07:52:22.490Z,17548
2017-05-18T07:53:32.114Z,12776
2017-05-18T07:54:42.323Z,8968
2017-05-18T07:55:52.561Z,8848
2017-05-18T07:57:01.869Z,13536
2017-05-18T07:58:11.796Z,16980
2017-05-18T07:59:22.009Z,6564
2017-05-18T08:00:31.916Z,5760
2017-05-18T08:01:42.144Z,6400
2017-05-18T08:02:52.064Z,6504
2017-05-18T08:04:02.042Z,13732
2017-05-18T08:05:12.253Z,18424
2017-05-18T08:06:21.863Z,14732
2017-05-18T08:07:32.088Z,17296
2017-05-18T08:08:42.360Z,8852
2017-05-18T08:09:52.597Z,7348
2017-05-18T08:11:01.907Z,6152
2017-05-18T08:12:12.131Z,5644
2017-05-18T08:13:22.053Z,16900
2017-05-18T08:14:31.694Z,5652
2017-05-18T08:15:41.914Z,4536
2017-05-18T08:16:51.211Z,5324
2017-05-18T08:18:01.440Z,4000
2017-05-18T08:19:11.048Z,3036
2017-05-18T08:20:20.959Z,2680
2017-05-18T08:21:31.189Z,2532
2017-05-18T08:22:41.246Z,2432
2017-05-18T08:24:17.138Z,2792
2017-05-18T08:25:26.755Z,2768
2017-05-18T08:26:36.989Z,2588
2017-05-18T08:27:46.912Z,2136
2017-05-18T08:28:57.135Z,2156
2017-05-18T08:30:06.770Z,2180
2017-05-18T08:31:16.391Z,1940
2017-05-18T08:32:25.697Z,1788
2017-05-18T08:33:35.620Z,1724
2017-05-18T08:34:45.838Z,1904
2017-05-18T08:35:55.753Z,2116
2017-05-18T08:37:05.678Z,2380
2017-05-18T08:38:15.597Z,2716
2017-05-18T08:39:25.244Z,6260
2017-05-18T08:40:34.566Z,6480
2017-05-18T08:41:44.495Z,5196
2017-05-18T08:42:54.417Z,4544
2017-05-18T08:44:04.019Z,4404
2017-05-18T08:45:13.629Z,5044
2017-05-18T08:46:22.936Z,5372
2017-05-18T08:47:33.163Z,5528
2017-05-18T08:48:43.086Z,6916
2017-05-18T08:49:52.997Z,7288
2017-05-18T08:51:02.623Z,6088
2017-05-18T08:52:12.540Z,5696
2017-05-18T08:53:22.766Z,5288
2017-05-18T08:54:32.690Z,4660
2017-05-18T08:55:42.610Z,4016
2017-05-18T08:56:52.820Z,3416
2017-05-18T08:58:02.722Z,2908
2017-05-18T08:59:12.380Z,2652
2017-05-18T09:00:21.986Z,2508
2017-05-18T09:01:32.206Z,2572
2017-05-18T09:02:41.511Z,2476
2017-05-18T09:03:51.443Z,2444
2017-05-18T09:05:01.677Z,2568
2017-05-18T09:06:11.596Z,2548
2017-05-18T09:07:21.203Z,2520
2017-05-18T09:08:30.812Z,2516
2017-05-18T09:09:41.116Z,2544
2017-05-18T09:10:50.431Z,2876
2017-05-18T09:12:00.348Z,3036
2017-05-18T09:13:09.657Z,2988
2017-05-18T09:14:19.304Z,2908
2017-05-18T09:15:28.612Z,2920
2017-05-18T09:16:38.537Z,2948
2017-05-18T09:17:48.152Z,2904
2017-05-18T09:18:57.774Z,3048
2017-05-18T09:20:07.697Z,3520
2017-05-18T09:21:16.994Z,4356
2017-05-18T09:22:26.675Z,4924
2017-05-18T09:23:35.982Z,5748
2017-05-18T09:24:45.598Z,6204
2017-05-18T09:25:55.827Z,5996
2017-05-18T09:27:05.135Z,4104
2017-05-18T09:28:15.360Z,3464
2017-05-18T09:29:25.278Z,3784
2017-05-18T09:30:34.959Z,4012
2017-05-18T09:31:45.180Z,4300
2017-05-18T09:32:54.789Z,3992
2017-05-18T09:34:04.403Z,4188
2017-05-18T09:35:14.025Z,3808
2017-05-18T09:36:23.943Z,3624
2017-05-18T09:37:33.875Z,3436
2017-05-18T09:38:43.802Z,3308
2017-05-18T09:39:54.033Z,3572
2017-05-18T09:41:03.663Z,3040
2017-05-18T09:42:13.930Z,3180
2017-05-18T09:43:23.856Z,2896
2017-05-18T09:44:33.782Z,2940
2017-05-18T09:45:44.011Z,2952
2017-05-18T09:46:53.614Z,2440
2017-05-18T09:48:02.910Z,2396
2017-05-18T09:49:12.820Z,3220
2017-05-18T09:50:22.743Z,4180
2017-05-18T09:51:32.652Z,5508
2017-05-18T09:52:42.877Z,5760
2017-05-18T09:53:53.101Z,4788
2017-05-18T09:55:02.408Z,5264
2017-05-18T09:56:12.384Z,5840
2017-05-18T09:57:22.626Z,5148
2017-05-18T09:58:32.535Z,5340
2017-05-18T09:59:42.446Z,5280
2017-05-18T10:00:52.412Z,4456
2017-05-18T10:02:02.323Z,3912
2017-05-18T10:03:11.990Z,3748
2017-05-18T10:04:21.605Z,3372
2017-05-18T10:05:31.820Z,3576
2017-05-18T10:06:41.448Z,3804
2017-05-18T10:07:51.376Z,3548
2017-05-18T10:09:01.296Z,2696
2017-05-18T10:10:11.200Z,1588
2017-05-18T10:11:21.420Z,932
2017-05-18T10:12:31.032Z,636
2017-05-18T10:13:40.030Z,560
2017-05-18T10:14:49.942Z,728
2017-05-18T10:15:59.858Z,952
2017-05-18T10:17:09.536Z,932
2017-05-18T10:18:19.762Z,844
2017-05-18T10:19:29.980Z,784
2017-05-18T10:20:40.194Z,596
2017-05-18T10:21:50.127Z,600
2017-05-18T10:23:00.043Z,600
2017-05-18T10:24:09.642Z,640
2017-05-18T10:25:19.561Z,600
2017-05-18T10:26:29.481Z,512
2017-05-18T10:27:39.410Z,568
2017-05-18T10:28:49.638Z,656
2017-05-18T10:29:59.550Z,640
2017-05-18T10:31:09.161Z,532
2017-05-18T10:32:19.387Z,512
2017-05-18T10:33:29.008Z,604
2017-05-18T10:34:38.927Z,668
2017-05-18T10:35:48.835Z,672
2017-05-18T10:36:59.060Z,588
2017-05-18T10:38:09.295Z,548
2017-05-18T10:39:19.213Z,600
2017-05-18T10:40:29.128Z,720
2017-05-18T10:41:39.046Z,952
2017-05-18T10:42:49.268Z,1208
2017-05-18T10:43:59.193Z,1352
2017-05-18T10:45:09.421Z,1396
2017-05-18T10:46:19.341Z,1812
2017-05-18T10:47:28.942Z,3040
2017-05-18T10:48:38.871Z,4864
2017-05-18T10:49:47.875Z,5600
2017-05-18T10:50:57.806Z,5796
2017-05-18T10:52:07.725Z,5536
2017-05-18T10:53:17.335Z,4776
2017-05-18T10:54:26.632Z,4688
2017-05-18T10:55:36.848Z,5244
2017-05-18T10:56:46.765Z,5320
2017-05-18T10:57:56.390Z,5228
2017-05-18T10:59:05.715Z,4724
2017-05-18T11:00:15.632Z,4256
2017-05-18T11:01:25.546Z,4296
2017-05-18T11:02:35.767Z,4216
2017-05-18T11:03:45.688Z,4456
2017-05-18T11:04:55.606Z,4392
2017-05-18T11:06:05.832Z,4144
2017-05-18T11:07:15.749Z,3580
2017-05-18T11:08:25.356Z,3248
2017-05-18T11:09:35.590Z,3356
2017-05-18T11:10:45.838Z,3684
2017-05-18T11:11:55.747Z,3980
2017-05-18T11:13:05.346Z,3956
2017-05-18T11:14:15.260Z,3864
2017-05-18T11:15:25.239Z,3108
2017-05-18T11:16:35.478Z,2820
2017-05-18T11:17:45.394Z,3328
2017-05-18T11:18:55.619Z,3884
2017-05-18T11:20:05.558Z,4028
2017-05-18T11:21:15.793Z,4072
2017-05-18T11:22:25.395Z,4192
2017-05-18T11:23:35.313Z,3876
2017-05-18T11:24:45.225Z,4048
2017-05-18T11:25:55.441Z,4128
2017-05-18T11:27:05.357Z,3836
2017-05-18T11:28:14.972Z,3520
2017-05-18T11:29:24.600Z,2840
2017-05-18T11:30:34.842Z,2476
2017-05-18T11:31:44.757Z,2580
2017-05-18T11:32:54.987Z,3036
2017-05-18T11:34:04.298Z,2888
2017-05-18T11:35:13.912Z,2028
2017-05-18T11:36:23.545Z,1148
2017-05-18T11:37:33.779Z,692
2017-05-18T11:38:43.715Z,524
2017-05-18T11:39:53.957Z,692
2017-05-18T11:41:04.175Z,1308
2017-05-18T11:42:13.792Z,1772
2017-05-18T11:43:23.737Z,1332
2017-05-18T11:44:33.345Z,876
2017-05-18T11:45:42.647Z,716
2017-05-18T11:46:52.852Z,1072
2017-05-18T11:48:02.451Z,1448
2017-05-18T11:49:12.365Z,1156
2017-05-18T11:50:22.284Z,736
2017-05-18T11:51:32.186Z,644
2017-05-18T11:52:42.414Z,1056
2017-05-18T11:53:52.660Z,1376
2017-05-18T11:55:01.963Z,928
2017-05-18T11:56:11.886Z,844
2017-05-18T11:57:21.298Z,900
2017-05-18T11:58:31.232Z,812
2017-05-18T11:59:41.451Z,908
2017-05-18T12:00:51.063Z,1076
2017-05-18T12:02:01.050Z,1112
2017-05-18T12:03:10.974Z,852
2017-05-18T12:04:20.295Z,1276
2017-05-18T12:05:30.540Z,1588
2017-05-18T12:06:40.156Z,1492
2017-05-18T12:07:50.072Z,1440
2017-05-18T12:08:59.992Z,1456
2017-05-18T12:10:09.913Z,1368
2017-05-18T12:11:20.147Z,1088
2017-05-18T12:12:30.075Z,844
2017-05-18T12:13:40.002Z,808
2017-05-18T12:14:50.244Z,952
2017-05-18T12:16:00.466Z,928
2017-05-18T12:17:10.402Z,824
2017-05-18T12:18:20.324Z,864
2017-05-18T12:19:30.560Z,1072
2017-05-18T12:20:40.474Z,1460
2017-05-18T12:21:50.413Z,1664
2017-05-18T12:23:00.647Z,1812
2017-05-18T12:24:10.327Z,1816
2017-05-18T12:25:20.240Z,1976
2017-05-18T12:26:30.149Z,2212
2017-05-18T12:27:40.061Z,3020
2017-05-18T12:28:49.987Z,3404
2017-05-18T12:29:59.926Z,3552
2017-05-18T12:31:09.863Z,4216
2017-05-18T12:32:19.481Z,4040
2017-05-18T12:33:29.713Z,4100
2017-05-18T12:34:39.625Z,4116
2017-05-18T12:35:49.545Z,4200
2017-05-18T12:36:58.859Z,4200
2017-05-18T12:38:08.161Z,4236
2017-05-18T12:39:18.076Z,4120
2017-05-18T12:40:27.682Z,3992
2017-05-18T12:41:37.652Z,3748
2017-05-18T12:42:47.562Z,3608
2017-05-18T12:43:57.788Z,3352
2017-05-18T12:45:08.014Z,2988
2017-05-18T12:46:17.335Z,2592
2017-05-18T12:47:27.261Z,2004
2017-05-18T12:48:37.180Z,1816
2017-05-18T12:49:47.401Z,2192
2017-05-18T12:50:57.634Z,3008
2017-05-18T12:52:07.612Z,3740
2017-05-18T12:53:17.850Z,3700
2017-05-18T12:54:27.145Z,3460
2017-05-18T12:55:37.368Z,3324
2017-05-18T12:56:46.676Z,3452
2017-05-18T12:57:56.600Z,3684
2017-05-18T12:59:06.515Z,3804
2017-05-18T13:00:16.792Z,3844
2017-05-18T13:01:26.711Z,3640
2017-05-18T13:02:36.645Z,3408
2017-05-18T13:03:46.576Z,3164
2017-05-18T13:04:56.803Z,2956
2017-05-18T13:06:07.028Z,2648
2017-05-18T13:07:16.950Z,2344
2017-05-18T13:08:27.180Z,2572
2017-05-18T13:09:37.097Z,2524
2017-05-18T13:10:46.708Z,2308
2017-05-18T13:11:56.318Z,2316
2017-05-18T13:13:06.237Z,2504
2017-05-18T13:14:16.464Z,2768
2017-05-18T13:15:25.780Z,2648
2017-05-18T13:16:36.003Z,2300
2017-05-18T13:17:45.926Z,2184
2017-05-18T13:18:56.152Z,2464
2017-05-18T13:20:06.386Z,2688
2017-05-18T13:21:16.370Z,2940
2017-05-18T13:22:25.983Z,3144
2017-05-18T13:23:35.924Z,3232
2017-05-18T13:24:45.533Z,3244
2017-05-18T13:25:55.443Z,3328
2017-05-18T13:27:05.360Z,3372
2017-05-18T13:28:14.670Z,3452
2017-05-18T13:29:24.595Z,3436
2017-05-18T13:30:34.510Z,3340
2017-05-18T13:31:44.762Z,3220
2017-05-18T13:32:54.378Z,3160
2017-05-18T13:34:03.670Z,3268
2017-05-18T13:35:12.965Z,3416
2017-05-18T13:36:22.570Z,3408
2017-05-18T13:37:32.480Z,3420
2017-05-18T13:38:42.088Z,3436
2017-05-18T13:39:51.705Z,3616
2017-05-18T13:41:01.955Z,3892
2017-05-18T13:42:11.884Z,4000
2017-05-18T13:43:21.183Z,4264
2017-05-18T13:44:31.414Z,4064
2017-05-18T13:45:41.331Z,3888
2017-05-18T13:46:50.949Z,3908
2017-05-18T13:48:00.550Z,4040
2017-05-18T13:49:10.479Z,3872
2017-05-18T13:50:20.092Z,3600
2017-05-18T13:51:30.335Z,3112
2017-05-18T13:52:40.563Z,2676
2017-05-18T13:53:50.495Z,2488
2017-05-18T13:55:00.750Z,2736
2017-05-18T13:56:10.781Z,2792
2017-05-18T13:57:20.750Z,2576
2017-05-18T13:58:30.982Z,2416
2017-05-18T13:59:40.894Z,2288
2017-05-18T14:00:51.123Z,2164
2017-05-18T14:02:01.036Z,2140
2017-05-18T14:03:10.948Z,2164
2017-05-18T14:04:21.263Z,2416
2017-05-18T14:05:31.086Z,2448
2017-05-18T14:06:41.010Z,2292
2017-05-18T14:07:51.260Z,2100
2017-05-18T14:09:00.574Z,1864
2017-05-18T14:10:10.491Z,1704
2017-05-18T14:11:20.717Z,1660
2017-05-18T14:12:30.654Z,1636
2017-05-18T14:13:40.329Z,1592
2017-05-18T14:14:50.071Z,1588
2017-05-18T14:16:00.332Z,1580
2017-05-18T14:17:10.251Z,1548
2017-05-18T14:18:20.478Z,1492
2017-05-18T14:19:30.415Z,1408
2017-05-18T14:20:40.031Z,1216
2017-05-18T14:21:49.948Z,1076
2017-05-18T14:22:59.560Z,1044
2017-05-18T14:24:09.487Z,1060
2017-05-18T14:25:19.111Z,1104
2017-05-18T14:26:29.033Z,1176
2017-05-18T14:27:39.268Z,1228
2017-05-18T14:28:49.513Z,1200
2017-05-18T14:29:59.123Z,1144
2017-05-18T14:31:09.342Z,1112
2017-05-18T14:32:19.254Z,1108
2017-05-18T14:33:29.506Z,1120
2017-05-18T14:34:39.445Z,1136
2017-05-18T14:35:49.681Z,1136
2017-05-18T14:36:59.295Z,1084
2017-05-18T14:38:09.515Z,1040
2017-05-18T14:39:19.129Z,1064
2017-05-18T14:40:29.067Z,1156
2017-05-18T14:41:38.990Z,1192
2017-05-18T14:42:48.298Z,1236
2017-05-18T14:43:58.226Z,1236
2017-05-18T14:45:08.142Z,1148
2017-05-18T14:46:17.133Z,1072
2017-05-18T14:47:27.076Z,1108
2017-05-18T14:48:37.010Z,1200
2017-05-18T14:49:47.231Z,1204
2017-05-18T14:50:57.154Z,1172
2017-05-18T14:52:07.072Z,1144
2017-05-18T14:53:16.362Z,1132
2017-05-18T14:54:26.604Z,1068
2017-05-18T14:55:36.825Z,1020
2017-05-18T14:56:46.130Z,1000
2017-05-18T14:57:56.356Z,956
2017-05-18T14:59:05.981Z,912
2017-05-18T15:00:15.889Z,884
2017-05-18T15:01:25.822Z,904
2017-05-18T15:02:35.732Z,940
2017-05-18T15:03:45.952Z,960
2017-05-18T15:04:55.554Z,996
2017-05-18T15:06:05.460Z,1012
2017-05-18T15:07:15.381Z,1048
2017-05-18T15:08:25.605Z,1088
2017-05-18T15:09:35.558Z,1076
2017-05-18T15:10:45.510Z,1024
2017-05-18T15:11:55.115Z,1008
2017-05-18T15:13:04.710Z,1036
2017-05-18T15:14:14.630Z,1104
2017-05-18T15:15:24.843Z,1164
2017-05-18T15:16:34.447Z,1264
2017-05-18T15:17:44.670Z,1404
2017-05-18T15:18:53.976Z,1544
2017-05-18T15:20:04.206Z,1680
2017-05-18T15:21:13.831Z,1776
2017-05-18T15:22:24.071Z,1804
2017-05-18T15:23:34.283Z,1756
2017-05-18T15:24:44.212Z,1684
2017-05-18T15:25:54.444Z,1628
2017-05-18T15:27:04.375Z,1632
2017-05-18T15:28:14.291Z,1668
2017-05-18T15:29:23.601Z,1712
2017-05-18T15:30:33.557Z,1740
2017-05-18T15:31:43.490Z,1768
2017-05-18T15:32:53.722Z,1824
2017-05-18T15:34:03.335Z,1844
2017-05-18T15:35:12.962Z,1768
2017-05-18T15:36:21.970Z,1692
2017-05-18T15:37:31.884Z,1572
2017-05-18T15:38:41.797Z,1424
2017-05-18T15:39:51.414Z,1340
2017-05-18T15:41:01.022Z,1364
2017-05-18T15:42:11.241Z,1408
2017-05-18T15:43:21.469Z,1608
2017-05-18T15:44:31.707Z,1772
2017-05-18T15:45:41.056Z,1720
2017-05-18T15:46:50.721Z,1748
2017-05-18T15:48:00.344Z,1696
2017-05-18T15:49:10.290Z,1628
2017-05-18T15:50:20.226Z,1528
2017-05-18T15:51:30.463Z,1400
2017-05-18T15:52:40.725Z,1288
2017-05-18T15:53:50.117Z,1200
2017-05-18T15:55:00.437Z,1116
2017-05-18T15:56:10.139Z,1064
2017-05-18T15:57:20.370Z,1032
2017-05-18T15:58:30.630Z,1040